sensor_id;sensor_type;location;lat;lon;timestamp;temperature;humidity
4813;DHT22;2420;51.202;8.698;2022-12-18T00:02:05;-11.10;1.00
4813;DHT22;2420;51.202;8.698;2022-12-18T00:04:31;-11.00;1.00
4813;DHT22;2420;51.202;8.698;2022-12-18T00:06:56;-11.20;1.00
4813;DHT22;2420;51.202;8.698;2022-12-18T00:09:22;-11.10;1.00
4813;DHT22;2420;51.202;8.698;2022-12-18T00:11:48;-11.30;1.00
4813;DHT22;2420;51.202;8.698;2022-12-18T00:14:14;-11.20;1.00
4813;DHT22;2420;51.202;8.698;2022-12-18T00:16:42;-11.10;1.00
4813;DHT22;2420;51.202;8.698;2022-12-18T00:19:08;-11.20;1.00
4813;DHT22;2420;51.202;8.698;2022-12-18T00:21:35;-11.20;1.00
4813;DHT22;2420;51.202;8.698;2022-12-18T00:24:00;-11.20;1.00
4813;DHT22;2420;51.202;8.698;2022-12-18T00:26:31;-11.10;1.00
4813;DHT22;2420;51.202;8.698;2022-12-18T00:29:09;-11.10;1.00
4813;DHT22;2420;51.202;8.698;2022-12-18T00:31:36;-11.10;1.00
4813;DHT22;2420;51.202;8.698;2022-12-18T00:34:02;-11.10;1.00
4813;DHT22;2420;51.202;8.698;2022-12-18T00:36:31;-11.30;1.00
4813;DHT22;2420;51.202;8.698;2022-12-18T00:38:58;-11.20;1.00
4813;DHT22;2420;51.202;8.698;2022-12-18T00:41:25;-11.00;1.00
4813;DHT22;2420;51.202;8.698;2022-12-18T00:44:12;-11.10;1.00
4813;DHT22;2420;51.202;8.698;2022-12-18T00:46:38;-11.10;1.00
4813;DHT22;2420;51.202;8.698;2022-12-18T00:49:04;-11.30;1.00
4813;DHT22;2420;51.202;8.698;2022-12-18T00:51:29;-11.30;1.00
4813;DHT22;2420;51.202;8.698;2022-12-18T00:53:55;-11.10;1.00
4813;DHT22;2420;51.202;8.698;2022-12-18T00:56:20;-11.40;1.00
4813;DHT22;2420;51.202;8.698;2022-12-18T00:58:46;-11.30;1.00
4813;DHT22;2420;51.202;8.698;2022-12-18T01:01:11;-11.30;1.00
4813;DHT22;2420;51.202;8.698;2022-12-18T01:03:37;-11.40;1.00
4813;DHT22;2420;51.202;8.698;2022-12-18T01:06:07;-11.30;1.00
4813;DHT22;2420;51.202;8.698;2022-12-18T01:08:33;-11.40;1.00
4813;DHT22;2420;51.202;8.698;2022-12-18T01:10:59;-11.40;1.00
4813;DHT22;2420;51.202;8.698;2022-12-18T01:13:25;-11.30;1.00
4813;DHT22;2420;51.202;8.698;2022-12-18T01:15:51;-11.40;1.00
4813;DHT22;2420;51.202;8.698;2022-12-18T01:18:16;-11.20;1.00
4813;DHT22;2420;51.202;8.698;2022-12-18T01:20:42;-11.20;1.00
4813;DHT22;2420;51.202;8.698;2022-12-18T01:23:07;-11.50;1.00
4813;DHT22;2420;51.202;8.698;2022-12-18T01:25:35;-11.30;1.00
4813;DHT22;2420;51.202;8.698;2022-12-18T01:28:02;-11.30;1.00
4813;DHT22;2420;51.202;8.698;2022-12-18T01:30:27;-11.40;1.00
4813;DHT22;2420;51.202;8.698;2022-12-18T01:32:53;-11.50;1.00
4813;DHT22;2420;51.202;8.698;2022-12-18T01:35:19;-11.60;1.00
4813;DHT22;2420;51.202;8.698;2022-12-18T01:37:44;-11.50;1.00
4813;DHT22;2420;51.202;8.698;2022-12-18T01:40:10;-11.40;1.00
4813;DHT22;2420;51.202;8.698;2022-12-18T01:42:36;-11.50;1.00
4813;DHT22;2420;51.202;8.698;2022-12-18T01:45:08;-11.70;1.00
4813;DHT22;2420;51.202;8.698;2022-12-18T01:47:56;-11.40;1.00
4813;DHT22;2420;51.202;8.698;2022-12-18T01:50:41;-11.30;1.00
4813;DHT22;2420;51.202;8.698;2022-12-18T01:53:18;-11.40;1.00
4813;DHT22;2420;51.202;8.698;2022-12-18T01:56:02;-11.40;1.00
4813;DHT22;2420;51.202;8.698;2022-12-18T01:59:07;-11.50;1.00
4813;DHT22;2420;51.202;8.698;2022-12-18T02:01:34;-11.30;1.00
4813;DHT22;2420;51.202;8.698;2022-12-18T02:06:51;-11.60;1.00
4813;DHT22;2420;51.202;8.698;2022-12-18T02:09:30;-11.50;1.00
4813;DHT22;2420;51.202;8.698;2022-12-18T02:12:16;-11.60;1.00
4813;DHT22;2420;51.202;8.698;2022-12-18T02:15:09;-11.50;1.00
4813;DHT22;2420;51.202;8.698;2022-12-18T02:18:33;-11.50;1.00
4813;DHT22;2420;51.202;8.698;2022-12-18T02:23:40;-11.60;1.00
4813;DHT22;2420;51.202;8.698;2022-12-18T02:29:13;-11.50;1.00
4813;DHT22;2420;51.202;8.698;2022-12-18T02:31:45;-11.40;1.00
4813;DHT22;2420;51.202;8.698;2022-12-18T02:34:13;-11.70;1.00
4813;DHT22;2420;51.202;8.698;2022-12-18T02:36:41;-11.50;1.00
4813;DHT22;2420;51.202;8.698;2022-12-18T02:39:11;-11.50;1.00
4813;DHT22;2420;51.202;8.698;2022-12-18T02:41:38;-11.60;1.00
4813;DHT22;2420;51.202;8.698;2022-12-18T02:44:10;-11.60;1.00
4813;DHT22;2420;51.202;8.698;2022-12-18T02:46:39;-11.80;1.00
4813;DHT22;2420;51.202;8.698;2022-12-18T02:49:36;-11.40;1.00
4813;DHT22;2420;51.202;8.698;2022-12-18T02:54:59;-11.60;1.00
4813;DHT22;2420;51.202;8.698;2022-12-18T02:57:35;-11.50;1.00
4813;DHT22;2420;51.202;8.698;2022-12-18T03:05:50;-11.70;1.00
4813;DHT22;2420;51.202;8.698;2022-12-18T03:08:44;-11.60;1.00
4813;DHT22;2420;51.202;8.698;2022-12-18T03:11:13;-11.40;1.00
4813;DHT22;2420;51.202;8.698;2022-12-18T03:13:46;-11.40;1.00
4813;DHT22;2420;51.202;8.698;2022-12-18T03:16:19;-11.60;1.00
4813;DHT22;2420;51.202;8.698;2022-12-18T03:19:03;-11.50;1.00
4813;DHT22;2420;51.202;8.698;2022-12-18T03:21:39;-11.50;1.00
4813;DHT22;2420;51.202;8.698;2022-12-18T03:24:08;-11.50;1.00
4813;DHT22;2420;51.202;8.698;2022-12-18T03:26:35;-11.60;1.00
4813;DHT22;2420;51.202;8.698;2022-12-18T03:29:07;-11.50;1.00
4813;DHT22;2420;51.202;8.698;2022-12-18T03:31:34;-11.60;1.00
4813;DHT22;2420;51.202;8.698;2022-12-18T03:34:08;-11.80;1.00
4813;DHT22;2420;51.202;8.698;2022-12-18T03:36:34;-11.70;1.00
4813;DHT22;2420;51.202;8.698;2022-12-18T03:39:00;-11.80;1.00
4813;DHT22;2420;51.202;8.698;2022-12-18T03:41:43;-11.70;1.00
4813;DHT22;2420;51.202;8.698;2022-12-18T03:44:30;-11.70;1.00
4813;DHT22;2420;51.202;8.698;2022-12-18T03:47:23;-11.70;1.00
4813;DHT22;2420;51.202;8.698;2022-12-18T03:49:57;-11.80;1.00
4813;DHT22;2420;51.202;8.698;2022-12-18T03:52:30;-11.90;1.00
4813;DHT22;2420;51.202;8.698;2022-12-18T03:54:58;-11.60;1.00
4813;DHT22;2420;51.202;8.698;2022-12-18T03:57:27;-11.60;1.00
4813;DHT22;2420;51.202;8.698;2022-12-18T03:59:57;-11.80;1.00
4813;DHT22;2420;51.202;8.698;2022-12-18T04:02:24;-11.50;1.00
4813;DHT22;2420;51.202;8.698;2022-12-18T04:04:52;-11.50;1.00
4813;DHT22;2420;51.202;8.698;2022-12-18T04:07:20;-11.50;1.00
4813;DHT22;2420;51.202;8.698;2022-12-18T04:09:47;-11.50;1.00
4813;DHT22;2420;51.202;8.698;2022-12-18T04:12:13;-11.70;1.00
4813;DHT22;2420;51.202;8.698;2022-12-18T04:14:39;-11.40;1.00
4813;DHT22;2420;51.202;8.698;2022-12-18T04:17:05;-11.60;1.00
4813;DHT22;2420;51.202;8.698;2022-12-18T04:19:30;-11.50;1.00
4813;DHT22;2420;51.202;8.698;2022-12-18T04:21:56;-11.40;1.00
4813;DHT22;2420;51.202;8.698;2022-12-18T04:24:21;-11.60;1.00
4813;DHT22;2420;51.202;8.698;2022-12-18T04:26:47;-11.30;1.00
4813;DHT22;2420;51.202;8.698;2022-12-18T04:29:13;-11.30;1.00
4813;DHT22;2420;51.202;8.698;2022-12-18T04:31:38;-11.40;1.00
4813;DHT22;2420;51.202;8.698;2022-12-18T04:34:04;-11.30;1.00
4813;DHT22;2420;51.202;8.698;2022-12-18T04:36:29;-11.20;1.00
4813;DHT22;2420;51.202;8.698;2022-12-18T04:38:55;-11.30;1.00
4813;DHT22;2420;51.202;8.698;2022-12-18T04:41:21;-11.60;1.00
4813;DHT22;2420;51.202;8.698;2022-12-18T04:43:46;-11.30;1.00
4813;DHT22;2420;51.202;8.698;2022-12-18T04:46:12;-11.50;1.00
4813;DHT22;2420;51.202;8.698;2022-12-18T04:48:38;-11.40;1.00
4813;DHT22;2420;51.202;8.698;2022-12-18T04:51:05;-11.30;1.00
4813;DHT22;2420;51.202;8.698;2022-12-18T04:53:30;-11.30;1.00
4813;DHT22;2420;51.202;8.698;2022-12-18T04:58:30;-11.50;1.00
4813;DHT22;2420;51.202;8.698;2022-12-18T05:00:55;-11.50;1.00
4813;DHT22;2420;51.202;8.698;2022-12-18T05:03:21;-11.40;1.00
4813;DHT22;2420;51.202;8.698;2022-12-18T05:05:50;-11.60;1.00
4813;DHT22;2420;51.202;8.698;2022-12-18T05:08:16;-11.60;1.00
4813;DHT22;2420;51.202;8.698;2022-12-18T05:10:41;-11.60;1.00
4813;DHT22;2420;51.202;8.698;2022-12-18T05:13:07;-11.60;1.00
4813;DHT22;2420;51.202;8.698;2022-12-18T05:15:33;-11.60;1.00
4813;DHT22;2420;51.202;8.698;2022-12-18T05:18:00;-11.60;1.00
4813;DHT22;2420;51.202;8.698;2022-12-18T05:20:26;-11.60;1.00
4813;DHT22;2420;51.202;8.698;2022-12-18T05:22:52;-11.70;1.00
4813;DHT22;2420;51.202;8.698;2022-12-18T05:25:18;-11.80;1.00
4813;DHT22;2420;51.202;8.698;2022-12-18T05:27:44;-11.50;1.00
4813;DHT22;2420;51.202;8.698;2022-12-18T05:30:11;-11.70;1.00
4813;DHT22;2420;51.202;8.698;2022-12-18T05:32:37;-11.80;1.00
4813;DHT22;2420;51.202;8.698;2022-12-18T05:35:05;-11.60;1.00
4813;DHT22;2420;51.202;8.698;2022-12-18T05:37:31;-11.60;1.00
4813;DHT22;2420;51.202;8.698;2022-12-18T05:39:56;-11.60;1.00
4813;DHT22;2420;51.202;8.698;2022-12-18T05:42:22;-11.80;1.00
4813;DHT22;2420;51.202;8.698;2022-12-18T05:44:47;-11.90;1.00
4813;DHT22;2420;51.202;8.698;2022-12-18T05:47:13;-11.70;1.00
4813;DHT22;2420;51.202;8.698;2022-12-18T05:49:39;-12.00;1.00
4813;DHT22;2420;51.202;8.698;2022-12-18T05:52:04;-12.00;1.00
4813;DHT22;2420;51.202;8.698;2022-12-18T05:54:30;-12.00;1.00
4813;DHT22;2420;51.202;8.698;2022-12-18T05:56:56;-12.10;1.00
4813;DHT22;2420;51.202;8.698;2022-12-18T05:59:22;-12.00;1.00
4813;DHT22;2420;51.202;8.698;2022-12-18T06:01:47;-11.70;1.00
4813;DHT22;2420;51.202;8.698;2022-12-18T06:04:13;-11.70;1.00
4813;DHT22;2420;51.202;8.698;2022-12-18T06:06:39;-11.90;1.00
4813;DHT22;2420;51.202;8.698;2022-12-18T06:09:04;-11.90;1.00
4813;DHT22;2420;51.202;8.698;2022-12-18T06:11:36;-11.90;1.00
4813;DHT22;2420;51.202;8.698;2022-12-18T06:14:03;-11.90;1.00
4813;DHT22;2420;51.202;8.698;2022-12-18T06:16:29;-11.60;1.00
4813;DHT22;2420;51.202;8.698;2022-12-18T06:19:00;-11.50;1.00
4813;DHT22;2420;51.202;8.698;2022-12-18T06:21:27;-11.80;1.00
4813;DHT22;2420;51.202;8.698;2022-12-18T06:23:53;-11.70;1.00
4813;DHT22;2420;51.202;8.698;2022-12-18T06:26:19;-11.50;1.00
4813;DHT22;2420;51.202;8.698;2022-12-18T06:28:45;-11.50;1.00
4813;DHT22;2420;51.202;8.698;2022-12-18T06:31:11;-11.50;1.00
4813;DHT22;2420;51.202;8.698;2022-12-18T06:33:37;-11.60;1.00
4813;DHT22;2420;51.202;8.698;2022-12-18T06:36:05;-11.70;1.00
4813;DHT22;2420;51.202;8.698;2022-12-18T06:38:33;-11.60;1.00
4813;DHT22;2420;51.202;8.698;2022-12-18T06:40:58;-11.70;1.00
4813;DHT22;2420;51.202;8.698;2022-12-18T06:43:24;-11.80;1.00
4813;DHT22;2420;51.202;8.698;2022-12-18T06:45:50;-11.90;1.00
4813;DHT22;2420;51.202;8.698;2022-12-18T06:48:19;-11.70;1.00
4813;DHT22;2420;51.202;8.698;2022-12-18T06:50:45;-11.90;1.00
4813;DHT22;2420;51.202;8.698;2022-12-18T06:53:16;-11.70;1.00
4813;DHT22;2420;51.202;8.698;2022-12-18T06:55:42;-11.90;1.00
4813;DHT22;2420;51.202;8.698;2022-12-18T06:58:07;-11.70;1.00
4813;DHT22;2420;51.202;8.698;2022-12-18T07:00:33;-11.70;1.00
4813;DHT22;2420;51.202;8.698;2022-12-18T07:02:58;-11.90;1.00
4813;DHT22;2420;51.202;8.698;2022-12-18T07:05:24;-11.70;1.00
4813;DHT22;2420;51.202;8.698;2022-12-18T07:07:49;-11.90;1.00
4813;DHT22;2420;51.202;8.698;2022-12-18T07:10:15;-11.60;1.00
4813;DHT22;2420;51.202;8.698;2022-12-18T07:12:40;-11.60;1.00
4813;DHT22;2420;51.202;8.698;2022-12-18T07:15:07;-11.80;1.00
4813;DHT22;2420;51.202;8.698;2022-12-18T07:17:32;-11.90;1.00
4813;DHT22;2420;51.202;8.698;2022-12-18T07:19:58;-11.60;1.00
4813;DHT22;2420;51.202;8.698;2022-12-18T07:22:25;-11.70;1.00
4813;DHT22;2420;51.202;8.698;2022-12-18T07:24:51;-11.60;1.00
4813;DHT22;2420;51.202;8.698;2022-12-18T07:27:16;-11.60;1.00
4813;DHT22;2420;51.202;8.698;2022-12-18T07:29:42;-12.00;1.00
4813;DHT22;2420;51.202;8.698;2022-12-18T07:32:07;-12.00;1.00
4813;DHT22;2420;51.202;8.698;2022-12-18T07:34:34;-11.90;1.00
4813;DHT22;2420;51.202;8.698;2022-12-18T07:36:59;-11.90;1.00
4813;DHT22;2420;51.202;8.698;2022-12-18T07:39:25;-11.70;1.00
4813;DHT22;2420;51.202;8.698;2022-12-18T07:41:50;-11.90;1.00
4813;DHT22;2420;51.202;8.698;2022-12-18T07:44:35;-11.80;1.00
4813;DHT22;2420;51.202;8.698;2022-12-18T07:47:01;-11.70;1.00
4813;DHT22;2420;51.202;8.698;2022-12-18T07:49:27;-11.90;1.00
4813;DHT22;2420;51.202;8.698;2022-12-18T07:51:55;-11.70;1.00
4813;DHT22;2420;51.202;8.698;2022-12-18T07:54:21;-11.50;1.00
4813;DHT22;2420;51.202;8.698;2022-12-18T07:56:47;-11.50;1.00
4813;DHT22;2420;51.202;8.698;2022-12-18T07:59:12;-11.40;1.00
4813;DHT22;2420;51.202;8.698;2022-12-18T08:01:38;-11.30;1.00
4813;DHT22;2420;51.202;8.698;2022-12-18T08:04:04;-11.50;1.00
4813;DHT22;2420;51.202;8.698;2022-12-18T08:06:30;-11.30;1.00
4813;DHT22;2420;51.202;8.698;2022-12-18T08:08:56;-11.20;1.00
4813;DHT22;2420;51.202;8.698;2022-12-18T08:11:23;-11.00;1.00
4813;DHT22;2420;51.202;8.698;2022-12-18T08:13:49;-10.90;1.00
4813;DHT22;2420;51.202;8.698;2022-12-18T08:16:14;-11.00;1.00
4813;DHT22;2420;51.202;8.698;2022-12-18T08:18:40;-10.80;1.00
4813;DHT22;2420;51.202;8.698;2022-12-18T08:21:13;-11.00;1.00
4813;DHT22;2420;51.202;8.698;2022-12-18T08:23:40;-11.00;1.00
4813;DHT22;2420;51.202;8.698;2022-12-18T08:26:06;-11.00;1.00
4813;DHT22;2420;51.202;8.698;2022-12-18T08:28:32;-10.60;1.00
4813;DHT22;2420;51.202;8.698;2022-12-18T08:30:57;-10.80;1.00
4813;DHT22;2420;51.202;8.698;2022-12-18T08:33:23;-10.40;1.00
4813;DHT22;2420;51.202;8.698;2022-12-18T08:35:48;-10.40;1.00
4813;DHT22;2420;51.202;8.698;2022-12-18T08:38:14;-10.40;1.00
4813;DHT22;2420;51.202;8.698;2022-12-18T08:40:39;-10.30;1.00
4813;DHT22;2420;51.202;8.698;2022-12-18T08:43:05;-10.40;1.00
4813;DHT22;2420;51.202;8.698;2022-12-18T08:45:49;-10.00;1.00
4813;DHT22;2420;51.202;8.698;2022-12-18T08:48:14;-9.80;1.00
4813;DHT22;2420;51.202;8.698;2022-12-18T08:50:40;-10.00;1.00
4813;DHT22;2420;51.202;8.698;2022-12-18T08:53:06;-9.80;1.00
4813;DHT22;2420;51.202;8.698;2022-12-18T08:55:31;-9.50;1.00
4813;DHT22;2420;51.202;8.698;2022-12-18T08:57:57;-9.40;1.00
4813;DHT22;2420;51.202;8.698;2022-12-18T09:00:22;-9.30;1.00
4813;DHT22;2420;51.202;8.698;2022-12-18T09:02:48;-9.30;1.00
4813;DHT22;2420;51.202;8.698;2022-12-18T09:05:14;-9.20;1.00
4813;DHT22;2420;51.202;8.698;2022-12-18T09:07:39;-9.10;1.00
4813;DHT22;2420;51.202;8.698;2022-12-18T09:10:08;-9.00;1.00
4813;DHT22;2420;51.202;8.698;2022-12-18T09:12:33;-9.00;1.00
4813;DHT22;2420;51.202;8.698;2022-12-18T09:15:00;-9.10;1.00
4813;DHT22;2420;51.202;8.698;2022-12-18T09:17:25;-8.90;1.00
4813;DHT22;2420;51.202;8.698;2022-12-18T09:19:51;-8.80;1.00
4813;DHT22;2420;51.202;8.698;2022-12-18T09:22:17;-8.50;1.00
4813;DHT22;2420;51.202;8.698;2022-12-18T09:24:42;-8.60;1.00
4813;DHT22;2420;51.202;8.698;2022-12-18T09:27:08;-8.60;1.00
4813;DHT22;2420;51.202;8.698;2022-12-18T09:29:33;-8.30;1.00
4813;DHT22;2420;51.202;8.698;2022-12-18T09:31:59;-8.10;1.00
4813;DHT22;2420;51.202;8.698;2022-12-18T09:34:25;-8.10;1.00
4813;DHT22;2420;51.202;8.698;2022-12-18T09:36:51;-7.90;1.00
4813;DHT22;2420;51.202;8.698;2022-12-18T09:39:16;-7.70;1.00
4813;DHT22;2420;51.202;8.698;2022-12-18T09:41:55;-7.90;1.00
4813;DHT22;2420;51.202;8.698;2022-12-18T09:44:34;-7.70;1.00
4813;DHT22;2420;51.202;8.698;2022-12-18T09:49:31;-7.50;1.00
4813;DHT22;2420;51.202;8.698;2022-12-18T09:52:02;-7.40;1.00
4813;DHT22;2420;51.202;8.698;2022-12-18T09:54:40;-7.10;1.00
4813;DHT22;2420;51.202;8.698;2022-12-18T09:57:18;-7.40;1.00
4813;DHT22;2420;51.202;8.698;2022-12-18T09:59:59;-7.10;1.00
4813;DHT22;2420;51.202;8.698;2022-12-18T10:02:30;-7.20;1.00
4813;DHT22;2420;51.202;8.698;2022-12-18T10:05:03;-6.80;1.00
4813;DHT22;2420;51.202;8.698;2022-12-18T10:13:21;-6.60;1.00
4813;DHT22;2420;51.202;8.698;2022-12-18T10:18:54;-6.60;1.00
4813;DHT22;2420;51.202;8.698;2022-12-18T10:21:30;-6.20;1.00
4813;DHT22;2420;51.202;8.698;2022-12-18T10:26:34;-6.20;1.00
4813;DHT22;2420;51.202;8.698;2022-12-18T10:29:00;-6.20;1.00
4813;DHT22;2420;51.202;8.698;2022-12-18T10:31:26;-6.10;1.00
4813;DHT22;2420;51.202;8.698;2022-12-18T10:33:54;-6.00;1.00
4813;DHT22;2420;51.202;8.698;2022-12-18T10:36:20;-5.70;1.00
4813;DHT22;2420;51.202;8.698;2022-12-18T10:38:46;-5.90;1.00
4813;DHT22;2420;51.202;8.698;2022-12-18T10:43:43;-5.50;1.00
4813;DHT22;2420;51.202;8.698;2022-12-18T10:51:39;-5.10;1.00
4813;DHT22;2420;51.202;8.698;2022-12-18T10:54:22;-5.20;1.00
4813;DHT22;2420;51.202;8.698;2022-12-18T10:56:48;-5.00;1.00
4813;DHT22;2420;51.202;8.698;2022-12-18T10:59:16;-4.60;1.00
4813;DHT22;2420;51.202;8.698;2022-12-18T11:01:56;-4.90;1.00
4813;DHT22;2420;51.202;8.698;2022-12-18T11:04:27;-4.70;1.00
4813;DHT22;2420;51.202;8.698;2022-12-18T11:06:56;-4.60;1.00
4813;DHT22;2420;51.202;8.698;2022-12-18T11:09:31;-4.40;1.00
4813;DHT22;2420;51.202;8.698;2022-12-18T11:12:00;-4.40;1.00
4813;DHT22;2420;51.202;8.698;2022-12-18T11:19:56;-4.20;1.00
4813;DHT22;2420;51.202;8.698;2022-12-18T11:22:26;-4.00;1.00
4813;DHT22;2420;51.202;8.698;2022-12-18T11:25:03;-4.20;1.00
4813;DHT22;2420;51.202;8.698;2022-12-18T11:27:31;-4.10;1.00
4813;DHT22;2420;51.202;8.698;2022-12-18T11:30:32;-4.00;1.00
4813;DHT22;2420;51.202;8.698;2022-12-18T11:33:15;-4.20;1.00
4813;DHT22;2420;51.202;8.698;2022-12-18T11:35:53;-4.20;1.00
4813;DHT22;2420;51.202;8.698;2022-12-18T11:38:26;-4.20;1.00
4813;DHT22;2420;51.202;8.698;2022-12-18T11:40:58;-4.20;1.00
4813;DHT22;2420;51.202;8.698;2022-12-18T11:43:30;-4.20;1.00
4813;DHT22;2420;51.202;8.698;2022-12-18T11:46:13;-4.10;1.00
4813;DHT22;2420;51.202;8.698;2022-12-18T11:48:48;-4.10;1.00
4813;DHT22;2420;51.202;8.698;2022-12-18T11:51:22;-4.20;1.00
4813;DHT22;2420;51.202;8.698;2022-12-18T11:53:51;-4.00;1.00
4813;DHT22;2420;51.202;8.698;2022-12-18T12:02:14;-3.80;1.00
4813;DHT22;2420;51.202;8.698;2022-12-18T12:05:02;-3.70;1.00
4813;DHT22;2420;51.202;8.698;2022-12-18T12:10:53;-3.30;1.00
4813;DHT22;2420;51.202;8.698;2022-12-18T12:16:33;-3.50;1.00
4813;DHT22;2420;51.202;8.698;2022-12-18T12:19:18;-3.40;1.00
4813;DHT22;2420;51.202;8.698;2022-12-18T12:21:58;-3.10;1.00
4813;DHT22;2420;51.202;8.698;2022-12-18T12:27:37;-3.10;1.00
4813;DHT22;2420;51.202;8.698;2022-12-18T12:30:19;-3.20;1.00
4813;DHT22;2420;51.202;8.698;2022-12-18T12:35:48;-3.20;1.00
4813;DHT22;2420;51.202;8.698;2022-12-18T12:38:28;-3.10;1.00
4813;DHT22;2420;51.202;8.698;2022-12-18T12:41:04;-3.10;1.00
4813;DHT22;2420;51.202;8.698;2022-12-18T12:43:51;-3.00;1.00
4813;DHT22;2420;51.202;8.698;2022-12-18T12:46:18;-3.10;1.00
4813;DHT22;2420;51.202;8.698;2022-12-18T12:48:52;-3.10;1.00
4813;DHT22;2420;51.202;8.698;2022-12-18T12:54:18;-3.00;1.00
4813;DHT22;2420;51.202;8.698;2022-12-18T12:56:51;-2.90;1.00
4813;DHT22;2420;51.202;8.698;2022-12-18T12:59:34;-2.90;1.00
4813;DHT22;2420;51.202;8.698;2022-12-18T13:07:14;-3.10;1.00
4813;DHT22;2420;51.202;8.698;2022-12-18T13:10:14;-3.10;1.00
4813;DHT22;2420;51.202;8.698;2022-12-18T13:15:42;-3.10;1.00
4813;DHT22;2420;51.202;8.698;2022-12-18T13:20:38;-3.10;1.00
4813;DHT22;2420;51.202;8.698;2022-12-18T13:25:59;-3.30;1.00
4813;DHT22;2420;51.202;8.698;2022-12-18T13:33:44;-3.20;1.00
4813;DHT22;2420;51.202;8.698;2022-12-18T13:38:47;-3.20;1.00
4813;DHT22;2420;51.202;8.698;2022-12-18T13:41:32;-3.20;1.00
4813;DHT22;2420;51.202;8.698;2022-12-18T13:44:12;-3.10;1.00
4813;DHT22;2420;51.202;8.698;2022-12-18T13:46:48;-3.20;1.00
4813;DHT22;2420;51.202;8.698;2022-12-18T13:49:25;-3.30;1.00
4813;DHT22;2420;51.202;8.698;2022-12-18T13:51:53;-3.20;1.00
4813;DHT22;2420;51.202;8.698;2022-12-18T13:54:56;-3.30;1.00
4813;DHT22;2420;51.202;8.698;2022-12-18T13:57:35;-3.40;1.00
4813;DHT22;2420;51.202;8.698;2022-12-18T14:02:49;-3.50;1.00
4813;DHT22;2420;51.202;8.698;2022-12-18T14:07:54;-3.40;1.00
4813;DHT22;2420;51.202;8.698;2022-12-18T14:10:21;-3.50;1.00
4813;DHT22;2420;51.202;8.698;2022-12-18T14:12:48;-3.60;1.00
4813;DHT22;2420;51.202;8.698;2022-12-18T14:18:00;-3.70;1.00
4813;DHT22;2420;51.202;8.698;2022-12-18T14:20:28;-3.80;1.00
4813;DHT22;2420;51.202;8.698;2022-12-18T14:22:55;-3.90;1.00
4813;DHT22;2420;51.202;8.698;2022-12-18T14:25:24;-3.70;1.00
4813;DHT22;2420;51.202;8.698;2022-12-18T14:30:24;-3.90;1.00
4813;DHT22;2420;51.202;8.698;2022-12-18T14:33:06;-4.10;1.00
4813;DHT22;2420;51.202;8.698;2022-12-18T14:35:39;-4.20;1.00
4813;DHT22;2420;51.202;8.698;2022-12-18T14:38:47;-3.90;1.00
4813;DHT22;2420;51.202;8.698;2022-12-18T14:41:15;-4.10;1.00
4813;DHT22;2420;51.202;8.698;2022-12-18T14:43:43;-4.10;1.00
4813;DHT22;2420;51.202;8.698;2022-12-18T14:46:37;-4.10;1.00
4813;DHT22;2420;51.202;8.698;2022-12-18T14:49:17;-4.30;1.00
4813;DHT22;2420;51.202;8.698;2022-12-18T14:51:49;-4.20;1.00
4813;DHT22;2420;51.202;8.698;2022-12-18T14:54:18;-4.30;1.00
4813;DHT22;2420;51.202;8.698;2022-12-18T14:56:49;-4.30;1.00
4813;DHT22;2420;51.202;8.698;2022-12-18T14:59:21;-4.40;1.00
4813;DHT22;2420;51.202;8.698;2022-12-18T15:02:13;-4.40;1.00
4813;DHT22;2420;51.202;8.698;2022-12-18T15:04:41;-4.50;1.00
4813;DHT22;2420;51.202;8.698;2022-12-18T15:09:37;-4.60;1.00
4813;DHT22;2420;51.202;8.698;2022-12-18T15:12:04;-4.60;1.00
4813;DHT22;2420;51.202;8.698;2022-12-18T15:16:56;-4.50;1.00
4813;DHT22;2420;51.202;8.698;2022-12-18T15:19:28;-4.80;1.00
4813;DHT22;2420;51.202;8.698;2022-12-18T15:21:57;-4.50;1.00
4813;DHT22;2420;51.202;8.698;2022-12-18T15:24:27;-4.60;1.00
4813;DHT22;2420;51.202;8.698;2022-12-18T15:26:55;-4.70;1.00
4813;DHT22;2420;51.202;8.698;2022-12-18T15:29:22;-4.90;1.00
4813;DHT22;2420;51.202;8.698;2022-12-18T15:32:05;-5.00;1.00
4813;DHT22;2420;51.202;8.698;2022-12-18T15:34:31;-4.90;1.00
4813;DHT22;2420;51.202;8.698;2022-12-18T15:36:59;-4.90;1.00
4813;DHT22;2420;51.202;8.698;2022-12-18T15:39:25;-5.00;1.00
4813;DHT22;2420;51.202;8.698;2022-12-18T15:41:50;-4.70;1.00
4813;DHT22;2420;51.202;8.698;2022-12-18T15:44:34;-4.90;1.00
4813;DHT22;2420;51.202;8.698;2022-12-18T15:47:00;-5.00;1.00
4813;DHT22;2420;51.202;8.698;2022-12-18T15:49:26;-4.90;1.00
4813;DHT22;2420;51.202;8.698;2022-12-18T15:51:54;-4.90;1.00
4813;DHT22;2420;51.202;8.698;2022-12-18T15:54:22;-4.90;1.00
4813;DHT22;2420;51.202;8.698;2022-12-18T15:57:11;-4.90;1.00
4813;DHT22;2420;51.202;8.698;2022-12-18T15:59:54;-4.90;1.00
4813;DHT22;2420;51.202;8.698;2022-12-18T16:02:22;-4.90;1.00
4813;DHT22;2420;51.202;8.698;2022-12-18T16:04:48;-5.20;1.00
4813;DHT22;2420;51.202;8.698;2022-12-18T16:07:14;-5.10;1.00
4813;DHT22;2420;51.202;8.698;2022-12-18T16:09:40;-4.90;1.00
4813;DHT22;2420;51.202;8.698;2022-12-18T16:12:10;-5.20;1.00
4813;DHT22;2420;51.202;8.698;2022-12-18T16:14:38;-5.00;1.00
4813;DHT22;2420;51.202;8.698;2022-12-18T16:17:09;-5.00;1.00
4813;DHT22;2420;51.202;8.698;2022-12-18T16:19:34;-4.80;1.00
4813;DHT22;2420;51.202;8.698;2022-12-18T16:22:03;-5.10;1.00
4813;DHT22;2420;51.202;8.698;2022-12-18T16:24:31;-5.10;1.00
4813;DHT22;2420;51.202;8.698;2022-12-18T16:26:59;-5.00;1.00
4813;DHT22;2420;51.202;8.698;2022-12-18T16:29:26;-5.10;1.00
4813;DHT22;2420;51.202;8.698;2022-12-18T16:32:01;-5.30;1.00
4813;DHT22;2420;51.202;8.698;2022-12-18T16:36:55;-5.30;1.00
4813;DHT22;2420;51.202;8.698;2022-12-18T16:39:21;-5.10;1.00
4813;DHT22;2420;51.202;8.698;2022-12-18T16:41:47;-5.30;1.00
4813;DHT22;2420;51.202;8.698;2022-12-18T16:44:13;-5.20;1.00
4813;DHT22;2420;51.202;8.698;2022-12-18T16:46:39;-5.00;1.00
4813;DHT22;2420;51.202;8.698;2022-12-18T16:49:08;-5.30;1.00
4813;DHT22;2420;51.202;8.698;2022-12-18T16:51:34;-5.10;1.00
4813;DHT22;2420;51.202;8.698;2022-12-18T16:53:59;-5.10;1.00
4813;DHT22;2420;51.202;8.698;2022-12-18T16:56:25;-5.20;1.00
4813;DHT22;2420;51.202;8.698;2022-12-18T16:58:55;-5.30;1.00
4813;DHT22;2420;51.202;8.698;2022-12-18T17:01:21;-5.10;1.00
4813;DHT22;2420;51.202;8.698;2022-12-18T17:03:58;-5.20;1.00
4813;DHT22;2420;51.202;8.698;2022-12-18T17:06:26;-5.20;1.00
4813;DHT22;2420;51.202;8.698;2022-12-18T17:08:59;-5.30;1.00
4813;DHT22;2420;51.202;8.698;2022-12-18T17:11:29;-5.10;1.00
4813;DHT22;2420;51.202;8.698;2022-12-18T17:13:55;-5.20;1.00
4813;DHT22;2420;51.202;8.698;2022-12-18T17:16:21;-5.20;1.00
4813;DHT22;2420;51.202;8.698;2022-12-18T17:18:47;-5.20;1.00
4813;DHT22;2420;51.202;8.698;2022-12-18T17:21:13;-5.10;1.00
4813;DHT22;2420;51.202;8.698;2022-12-18T17:23:40;-5.30;1.00
4813;DHT22;2420;51.202;8.698;2022-12-18T17:26:06;-5.20;1.00
4813;DHT22;2420;51.202;8.698;2022-12-18T17:28:33;-5.20;1.00
4813;DHT22;2420;51.202;8.698;2022-12-18T17:30:59;-5.20;1.00
4813;DHT22;2420;51.202;8.698;2022-12-18T17:33:25;-5.20;1.00
4813;DHT22;2420;51.202;8.698;2022-12-18T17:35:51;-5.10;1.00
4813;DHT22;2420;51.202;8.698;2022-12-18T17:38:17;-5.30;1.00
4813;DHT22;2420;51.202;8.698;2022-12-18T17:40:42;-5.10;1.00
4813;DHT22;2420;51.202;8.698;2022-12-18T17:43:09;-5.00;1.00
4813;DHT22;2420;51.202;8.698;2022-12-18T17:45:37;-5.40;1.00
4813;DHT22;2420;51.202;8.698;2022-12-18T17:48:03;-5.20;1.00
4813;DHT22;2420;51.202;8.698;2022-12-18T17:50:29;-5.40;1.00
4813;DHT22;2420;51.202;8.698;2022-12-18T17:52:56;-5.10;1.00
4813;DHT22;2420;51.202;8.698;2022-12-18T17:55:22;-5.30;1.00
4813;DHT22;2420;51.202;8.698;2022-12-18T17:57:48;-5.10;1.00
4813;DHT22;2420;51.202;8.698;2022-12-18T18:00:14;-5.20;1.00
4813;DHT22;2420;51.202;8.698;2022-12-18T18:02:40;-5.20;1.00
4813;DHT22;2420;51.202;8.698;2022-12-18T18:05:06;-5.10;1.00
4813;DHT22;2420;51.202;8.698;2022-12-18T18:07:31;-5.10;1.00
4813;DHT22;2420;51.202;8.698;2022-12-18T18:09:57;-5.20;1.00
4813;DHT22;2420;51.202;8.698;2022-12-18T18:12:22;-5.20;1.00
4813;DHT22;2420;51.202;8.698;2022-12-18T18:15:07;-5.20;1.00